createdAt,value
2023-02-18T00:01:34.389Z,12.50
2023-02-18T00:04:02.918Z,14.52
2023-02-18T00:06:34.439Z,12.35
2023-02-18T00:09:04.873Z,10.80
2023-02-18T00:11:35.826Z,11.27
2023-02-18T00:14:06.063Z,9.18
2023-02-18T00:16:34.564Z,11.25
2023-02-18T00:19:05.202Z,13.73
2023-02-18T00:21:36.708Z,13.75
2023-02-18T00:24:06.120Z,13.32
2023-02-18T00:26:35.140Z,12.70
2023-02-18T00:29:04.134Z,13.05
2023-02-18T00:31:34.580Z,14.27
2023-02-18T00:34:04.578Z,14.18
2023-02-18T00:36:35.797Z,14.30
2023-02-18T00:39:07.352Z,12.90
2023-02-18T00:41:36.490Z,14.00
2023-02-18T00:44:05.678Z,13.02
2023-02-18T00:46:36.006Z,13.52
2023-02-18T00:49:05.316Z,13.45
2023-02-18T00:51:35.543Z,13.43
2023-02-18T00:54:04.023Z,13.60
2023-02-18T00:56:33.188Z,15.70
2023-02-18T00:59:01.609Z,13.35
2023-02-18T01:01:30.793Z,13.05
2023-02-18T01:03:59.201Z,13.55
2023-02-18T01:06:27.812Z,13.90
2023-02-18T01:08:57.537Z,15.32
2023-02-18T01:11:26.188Z,12.98
2023-02-18T01:13:54.763Z,13.43
2023-02-18T01:16:23.426Z,13.15
2023-02-18T01:18:51.862Z,13.43
2023-02-18T01:21:20.346Z,13.50
2023-02-18T01:23:48.748Z,16.23
2023-02-18T01:26:19.247Z,12.50
2023-02-18T01:28:47.688Z,11.50
2023-02-18T01:31:16.296Z,14.43
2023-02-18T01:33:44.896Z,13.85
2023-02-18T01:36:13.863Z,12.05
2023-02-18T01:38:42.264Z,13.15
2023-02-18T01:41:11.278Z,14.45
2023-02-18T01:43:41.043Z,12.57
2023-02-18T01:46:17.580Z,13.95
2023-02-18T01:48:52.448Z,12.15
2023-02-18T01:51:24.871Z,15.23
2023-02-18T01:53:57.528Z,12.95
2023-02-18T01:56:30.004Z,11.77
2023-02-18T01:59:04.018Z,11.95
2023-02-18T02:01:33.846Z,11.45
2023-02-18T02:04:03.540Z,11.77
2023-02-18T02:06:32.099Z,13.55
2023-02-18T02:09:03.253Z,13.55
2023-02-18T02:11:49.175Z,15.48
2023-02-18T02:14:28.735Z,13.48
2023-02-18T02:17:04.000Z,15.07
2023-02-18T02:20:22.358Z,14.48
2023-02-18T02:23:29.976Z,14.05
2023-02-18T02:26:33.721Z,13.98
2023-02-18T02:29:20.124Z,14.77
2023-02-18T02:32:10.312Z,13.48
2023-02-18T02:34:48.643Z,13.60
2023-02-18T02:37:25.373Z,12.80
2023-02-18T02:40:07.827Z,11.93
2023-02-18T02:42:47.899Z,12.93
2023-02-18T02:45:25.556Z,13.57
2023-02-18T02:48:02.835Z,13.18
2023-02-18T02:50:39.578Z,14.13
2023-02-18T02:53:15.685Z,11.07
2023-02-18T02:55:44.028Z,11.85
2023-02-18T02:58:16.833Z,13.68
2023-02-18T03:00:59.518Z,10.70
2023-02-18T03:03:45.017Z,11.75
2023-02-18T03:06:50.351Z,11.05
2023-02-18T03:09:25.350Z,13.20
2023-02-18T03:12:02.719Z,11.35
2023-02-18T03:14:45.843Z,14.52
2023-02-18T03:17:23.327Z,14.10
2023-02-18T03:19:58.796Z,14.23
2023-02-18T03:22:32.514Z,15.10
2023-02-18T03:25:04.946Z,15.50
2023-02-18T03:27:39.827Z,20.83
2023-02-18T03:30:14.567Z,17.75
2023-02-18T03:32:45.089Z,17.50
2023-02-18T03:35:16.536Z,19.10
2023-02-18T03:37:51.504Z,16.88
2023-02-18T03:40:20.537Z,17.73
2023-02-18T03:42:48.946Z,15.30
2023-02-18T03:45:18.721Z,16.50
2023-02-18T03:47:47.259Z,13.55
2023-02-18T03:50:17.438Z,16.00
2023-02-18T03:52:47.367Z,15.32
2023-02-18T03:55:15.810Z,13.32
2023-02-18T03:57:44.212Z,12.90
2023-02-18T04:00:13.348Z,13.68
2023-02-18T04:02:42.109Z,11.30
2023-02-18T04:05:10.501Z,9.25
2023-02-18T04:07:38.909Z,8.65
2023-02-18T04:10:09.721Z,9.65
2023-02-18T04:12:38.122Z,9.35
2023-02-18T04:15:06.762Z,7.22
2023-02-18T04:17:35.604Z,7.85
2023-02-18T04:20:04.828Z,7.38
2023-02-18T04:22:33.587Z,6.60
2023-02-18T04:25:01.892Z,6.55
2023-02-18T04:27:31.652Z,6.78
2023-02-18T04:30:00.310Z,5.97
2023-02-18T04:32:29.036Z,6.18
2023-02-18T04:34:57.561Z,6.82
2023-02-18T04:37:26.112Z,6.28
2023-02-18T04:39:54.458Z,6.28
2023-02-18T04:42:22.908Z,6.32
2023-02-18T04:44:52.651Z,6.70
2023-02-18T04:47:20.988Z,7.00
2023-02-18T04:49:49.448Z,6.13
2023-02-18T04:52:18.020Z,5.45
2023-02-18T04:54:47.139Z,5.65
2023-02-18T04:57:15.527Z,5.25
2023-02-18T04:59:43.979Z,6.00
2023-02-18T05:02:13.720Z,5.05
2023-02-18T05:04:42.048Z,5.25
2023-02-18T05:07:10.358Z,5.35
2023-02-18T05:09:38.832Z,4.90
2023-02-18T05:12:08.086Z,5.15
2023-02-18T05:14:36.461Z,4.75
2023-02-18T05:17:04.744Z,4.90
2023-02-18T05:19:34.450Z,4.93
2023-02-18T05:22:02.778Z,4.90
2023-02-18T05:24:31.113Z,4.78
2023-02-18T05:26:59.441Z,3.95
2023-02-18T05:29:27.877Z,4.05
2023-02-18T05:31:56.262Z,4.10
2023-02-18T05:34:24.672Z,4.32
2023-02-18T05:36:54.406Z,4.55
2023-02-18T05:39:22.785Z,4.88
2023-02-18T05:41:51.191Z,4.40
2023-02-18T05:44:31.434Z,5.03
2023-02-18T05:47:01.060Z,5.65
2023-02-18T05:49:30.180Z,4.93
2023-02-18T05:52:00.787Z,5.35
2023-02-18T05:54:29.623Z,5.43
2023-02-18T05:56:57.940Z,5.50
2023-02-18T05:59:26.393Z,5.80
2023-02-18T06:01:54.964Z,5.95
2023-02-18T06:04:23.624Z,5.82
2023-02-18T06:06:52.137Z,5.35
2023-02-18T06:09:21.853Z,6.28
2023-02-18T06:11:50.437Z,6.80
2023-02-18T06:14:18.740Z,6.95
2023-02-18T06:16:47.172Z,6.75
2023-02-18T06:19:15.485Z,6.30
2023-02-18T06:21:43.841Z,8.13
2023-02-18T06:24:12.296Z,6.93
2023-02-18T06:26:42.059Z,7.57
2023-02-18T06:29:10.497Z,7.50
2023-02-18T06:31:38.982Z,7.78
2023-02-18T06:34:07.414Z,8.63
2023-02-18T06:36:35.830Z,8.05
2023-02-18T06:39:06.071Z,9.35
2023-02-18T06:41:34.853Z,9.70
2023-02-18T06:44:04.849Z,10.07
2023-02-18T06:46:33.368Z,9.95
2023-02-18T06:49:01.819Z,10.63
2023-02-18T06:51:30.179Z,9.93
2023-02-18T06:53:58.581Z,9.65
2023-02-18T06:56:27.047Z,10.93
2023-02-18T06:58:55.422Z,9.18
2023-02-18T07:01:25.144Z,8.40
2023-02-18T07:03:53.540Z,8.07
2023-02-18T07:06:21.939Z,8.07
2023-02-18T07:08:50.309Z,6.72
2023-02-18T07:11:18.900Z,7.03
2023-02-18T07:13:47.361Z,6.28
2023-02-18T07:16:15.791Z,6.43
2023-02-18T07:18:45.524Z,6.07
2023-02-18T07:21:13.948Z,5.03
2023-02-18T07:23:42.315Z,5.32
2023-02-18T07:26:12.893Z,5.38
2023-02-18T07:28:41.986Z,4.57
2023-02-18T07:31:10.838Z,4.47
2023-02-18T07:33:39.361Z,4.57
2023-02-18T07:36:10.619Z,5.03
2023-02-18T07:38:39.057Z,5.65
2023-02-18T07:41:07.439Z,5.10
2023-02-18T07:43:35.765Z,5.55
2023-02-18T07:46:10.054Z,5.68
2023-02-18T07:48:38.660Z,5.88
2023-02-18T07:51:07.666Z,6.65
2023-02-18T07:53:38.103Z,5.82
2023-02-18T07:56:07.981Z,6.25
2023-02-18T07:58:38.985Z,5.18
2023-02-18T08:01:08.684Z,5.60
2023-02-18T08:03:37.664Z,6.32
2023-02-18T08:06:08.136Z,5.45
2023-02-18T08:08:38.118Z,5.88
2023-02-18T08:11:18.642Z,6.57
2023-02-18T08:13:47.671Z,5.05
2023-02-18T08:16:16.592Z,5.20
2023-02-18T08:18:45.542Z,4.95
2023-02-18T08:21:13.939Z,5.03
2023-02-18T08:23:43.724Z,5.15
2023-02-18T08:26:12.711Z,4.10
2023-02-18T08:28:43.795Z,4.38
2023-02-18T08:31:18.376Z,4.55
2023-02-18T08:36:14.866Z,4.30
2023-02-18T08:38:44.848Z,5.18
2023-02-18T08:41:14.443Z,4.72
2023-02-18T08:43:43.249Z,4.32
2023-02-18T08:46:15.931Z,5.30
2023-02-18T08:48:44.844Z,4.28
2023-02-18T08:51:15.222Z,5.07
2023-02-18T08:53:46.413Z,6.22
2023-02-18T08:56:15.782Z,4.55
2023-02-18T08:58:44.495Z,4.60
2023-02-18T09:01:14.385Z,6.15
2023-02-18T09:03:42.856Z,4.57
2023-02-18T09:06:11.253Z,5.97
2023-02-18T09:08:39.637Z,5.03
2023-02-18T09:11:11.108Z,7.60
2023-02-18T09:13:40.123Z,5.95
2023-02-18T09:16:12.274Z,5.85
2023-02-18T09:18:41.274Z,8.52
2023-02-18T09:21:12.144Z,5.93
2023-02-18T09:23:41.064Z,7.45
2023-02-18T09:26:15.456Z,5.65
2023-02-18T09:28:44.319Z,5.60
2023-02-18T09:31:16.118Z,5.07
2023-02-18T09:33:51.233Z,8.30
2023-02-18T09:36:20.754Z,7.93
2023-02-18T09:38:49.739Z,7.93
2023-02-18T09:41:31.254Z,7.68
2023-02-18T09:44:02.527Z,8.35
2023-02-18T09:46:34.120Z,9.75
2023-02-18T09:49:05.303Z,7.07
2023-02-18T09:51:33.931Z,8.10
2023-02-18T09:54:02.292Z,6.22
2023-02-18T09:56:34.715Z,6.82
2023-02-18T09:59:06.469Z,6.68
2023-02-18T10:01:38.331Z,9.18
2023-02-18T10:04:14.550Z,7.38
2023-02-18T10:06:44.797Z,7.18
2023-02-18T10:09:19.676Z,7.97
2023-02-18T10:11:52.542Z,7.70
2023-02-18T10:14:20.989Z,6.63
2023-02-18T10:16:53.676Z,5.88
2023-02-18T10:19:27.300Z,9.18
2023-02-18T10:21:57.056Z,9.02
2023-02-18T10:24:30.597Z,8.70
2023-02-18T10:27:02.530Z,8.60
2023-02-18T10:29:32.314Z,9.82
2023-02-18T10:32:07.141Z,12.13
2023-02-18T10:34:42.681Z,7.05
2023-02-18T10:37:28.783Z,10.25
2023-02-18T10:40:07.596Z,7.38
2023-02-18T10:42:47.630Z,8.75
2023-02-18T10:45:25.654Z,7.68
2023-02-18T10:48:08.499Z,6.00
2023-02-18T10:50:39.298Z,9.52
2023-02-18T10:53:14.003Z,9.00
2023-02-18T10:55:44.298Z,8.60
2023-02-18T10:58:34.685Z,8.98
2023-02-18T11:01:08.608Z,8.05
2023-02-18T11:03:43.478Z,9.10
2023-02-18T11:06:22.836Z,8.65
2023-02-18T11:08:51.986Z,6.70
2023-02-18T11:11:26.436Z,10.38
2023-02-18T11:13:58.246Z,7.93
2023-02-18T11:16:38.863Z,7.93
2023-02-18T11:19:34.632Z,7.63
2023-02-18T11:22:16.774Z,7.15
2023-02-18T11:24:48.292Z,7.45
2023-02-18T11:27:24.665Z,6.72
2023-02-18T11:30:01.154Z,8.07
2023-02-18T11:32:31.584Z,8.65
2023-02-18T11:34:59.996Z,7.32
2023-02-18T11:37:28.381Z,6.60
2023-02-18T11:39:57.416Z,8.13
2023-02-18T11:42:28.039Z,7.10
2023-02-18T11:44:59.275Z,7.65
2023-02-18T11:47:32.182Z,6.07
2023-02-18T11:50:15.525Z,5.63
2023-02-18T11:52:45.822Z,8.30
2023-02-18T11:55:17.811Z,6.28
2023-02-18T11:57:49.283Z,7.00
2023-02-18T12:00:25.508Z,6.72
2023-02-18T12:02:57.674Z,6.97
2023-02-18T12:05:28.749Z,9.30
2023-02-18T12:08:03.044Z,8.95
2023-02-18T12:10:35.886Z,6.88
2023-02-18T12:13:09.326Z,6.72
2023-02-18T12:15:53.663Z,6.15
2023-02-18T12:18:47.956Z,5.38
2023-02-18T12:21:27.149Z,7.00
2023-02-18T12:24:04.807Z,8.10
2023-02-18T12:26:41.028Z,6.93
2023-02-18T12:29:22.919Z,6.45
2023-02-18T12:32:06.181Z,5.95
2023-02-18T12:34:50.507Z,6.00
2023-02-18T12:37:42.018Z,7.18
2023-02-18T12:40:24.738Z,8.23
2023-02-18T12:43:02.466Z,7.55
2023-02-18T12:45:45.317Z,7.28
2023-02-18T12:48:29.598Z,7.88
2023-02-18T12:51:10.272Z,7.35
2023-02-18T12:54:01.816Z,7.57
2023-02-18T12:56:53.355Z,6.53
2023-02-18T12:59:43.698Z,5.55
2023-02-18T13:02:28.217Z,7.07
2023-02-18T13:05:06.059Z,7.95
2023-02-18T13:07:56.361Z,6.40
2023-02-18T13:10:52.334Z,5.75
2023-02-18T13:13:23.219Z,6.82
2023-02-18T13:15:57.613Z,5.60
2023-02-18T13:18:31.117Z,7.07
2023-02-18T13:21:05.806Z,7.25
2023-02-18T13:23:38.767Z,6.53
2023-02-18T13:26:10.825Z,7.32
2023-02-18T13:28:44.435Z,7.50
2023-02-18T13:31:25.008Z,6.63
2023-02-18T13:34:02.060Z,7.68
2023-02-18T13:36:48.305Z,6.22
2023-02-18T13:39:20.501Z,8.52
2023-02-18T13:41:50.876Z,7.38
2023-02-18T13:44:57.697Z,8.10
2023-02-18T13:47:38.649Z,7.85
2023-02-18T13:50:23.395Z,6.47
2023-02-18T13:53:01.063Z,8.15
2023-02-18T13:55:40.303Z,8.13
2023-02-18T13:58:16.155Z,7.32
2023-02-18T14:00:52.358Z,7.28
2023-02-18T14:03:35.981Z,8.02
2023-02-18T14:06:15.437Z,8.70
2023-02-18T14:08:45.932Z,8.93
2023-02-18T14:11:42.177Z,10.63
2023-02-18T14:14:34.803Z,9.82
2023-02-18T14:17:41.886Z,11.27
2023-02-18T14:20:48.268Z,10.25
2023-02-18T14:23:53.213Z,9.75
2023-02-18T14:26:33.317Z,10.05
2023-02-18T14:29:07.554Z,8.98
2023-02-18T14:31:46.112Z,12.80
2023-02-18T14:34:59.849Z,11.85
2023-02-18T14:37:53.284Z,13.48
2023-02-18T14:40:49.710Z,12.73
2023-02-18T14:43:34.275Z,12.68
2023-02-18T14:46:15.215Z,12.95
2023-02-18T14:49:00.395Z,10.18
2023-02-18T14:51:32.417Z,12.07
2023-02-18T14:54:05.607Z,11.18
2023-02-18T14:56:38.650Z,13.70
2023-02-18T14:59:09.171Z,12.55
2023-02-18T15:01:38.391Z,11.35
2023-02-18T15:04:06.852Z,10.88
2023-02-18T15:06:36.824Z,12.75
2023-02-18T15:09:14.995Z,13.15
2023-02-18T15:11:46.081Z,11.07
2023-02-18T15:14:21.054Z,12.18
2023-02-18T15:16:51.713Z,10.43
2023-02-18T15:19:22.870Z,9.98
2023-02-18T15:21:55.037Z,10.35
2023-02-18T15:24:27.276Z,9.25
2023-02-18T15:26:58.416Z,11.07
2023-02-18T15:29:31.503Z,10.43
2023-02-18T15:32:00.871Z,9.45
2023-02-18T15:34:36.634Z,9.00
2023-02-18T15:37:06.574Z,9.48
2023-02-18T15:39:38.537Z,9.82
2023-02-18T15:42:17.989Z,9.43
2023-02-18T15:44:51.314Z,11.05
2023-02-18T15:47:20.533Z,11.63
2023-02-18T15:49:54.015Z,12.48
2023-02-18T15:52:29.288Z,10.85
2023-02-18T15:55:02.508Z,10.40
2023-02-18T15:57:31.825Z,10.55
2023-02-18T16:00:07.314Z,9.90
2023-02-18T16:02:35.934Z,8.85
2023-02-18T16:05:05.588Z,7.93
2023-02-18T16:07:39.386Z,10.45
2023-02-18T16:10:21.367Z,10.00
2023-02-18T16:12:54.165Z,12.38
2023-02-18T16:15:28.171Z,10.43
2023-02-18T16:17:58.858Z,8.07
2023-02-18T16:20:32.675Z,9.27
2023-02-18T16:23:04.157Z,9.15
2023-02-18T16:25:43.297Z,7.50
2023-02-18T16:28:16.442Z,8.30
2023-02-18T16:30:46.671Z,10.05
2023-02-18T16:33:15.101Z,11.63
2023-02-18T16:35:50.020Z,13.13
2023-02-18T16:38:20.918Z,10.63
2023-02-18T16:40:50.119Z,8.80
2023-02-18T16:43:20.918Z,9.32
2023-02-18T16:45:52.513Z,10.77
2023-02-18T16:48:25.325Z,9.93
2023-02-18T16:50:54.191Z,9.85
2023-02-18T16:53:22.884Z,9.57
2023-02-18T16:55:51.977Z,10.50
2023-02-18T16:58:20.609Z,11.25
2023-02-18T17:00:53.124Z,10.40
2023-02-18T17:03:22.219Z,11.25
2023-02-18T17:05:50.775Z,9.90
2023-02-18T17:08:23.180Z,8.07
2023-02-18T17:10:52.611Z,11.27
2023-02-18T17:13:23.853Z,12.50
2023-02-18T17:15:55.777Z,9.73
2023-02-18T17:18:24.837Z,10.02
2023-02-18T17:20:54.864Z,9.38
2023-02-18T17:23:25.096Z,8.98
2023-02-18T17:25:54.319Z,11.48
2023-02-18T17:28:23.219Z,9.75
2023-02-18T17:30:56.693Z,9.18
2023-02-18T17:33:26.376Z,8.98
2023-02-18T17:35:55.116Z,10.15
2023-02-18T17:38:23.685Z,10.48
2023-02-18T17:40:52.111Z,10.88
2023-02-18T17:43:20.670Z,11.48
2023-02-18T17:45:52.369Z,12.32
2023-02-18T17:48:22.297Z,12.15
2023-02-18T17:50:51.298Z,10.00
2023-02-18T17:53:20.610Z,11.27
2023-02-18T17:55:49.796Z,9.48
2023-02-18T17:58:18.393Z,9.55
2023-02-18T18:00:49.290Z,10.68
2023-02-18T18:03:18.726Z,10.65
2023-02-18T18:05:51.899Z,10.18
2023-02-18T18:08:20.233Z,12.27
2023-02-18T18:10:51.101Z,10.05
2023-02-18T18:13:23.060Z,11.60
2023-02-18T18:15:51.859Z,10.55
2023-02-18T18:18:20.510Z,9.27
2023-02-18T18:20:53.474Z,10.00
2023-02-18T18:23:23.179Z,11.82
2023-02-18T18:25:53.069Z,11.90
2023-02-18T18:28:21.701Z,12.43
2023-02-18T18:30:51.752Z,15.95
2023-02-18T18:33:22.912Z,12.88
2023-02-18T18:35:54.662Z,12.35
2023-02-18T18:38:24.673Z,11.45
2023-02-18T18:40:54.056Z,12.73
2023-02-18T18:43:24.586Z,13.88
2023-02-18T18:45:53.508Z,13.23
2023-02-18T18:48:22.835Z,13.13
2023-02-18T18:50:54.436Z,12.18
2023-02-18T18:53:25.034Z,12.18
2023-02-18T18:55:55.186Z,13.25
2023-02-18T18:58:24.792Z,12.23
2023-02-18T19:00:55.263Z,11.93
2023-02-18T19:03:24.969Z,10.98
2023-02-18T19:05:54.981Z,12.63
2023-02-18T19:08:23.705Z,14.73
2023-02-18T19:10:53.862Z,13.73
2023-02-18T19:13:24.891Z,12.90
2023-02-18T19:16:02.077Z,13.80
2023-02-18T19:18:32.401Z,15.27
2023-02-18T19:21:03.468Z,14.65
2023-02-18T19:23:31.973Z,15.00
2023-02-18T19:26:00.724Z,15.90
2023-02-18T19:28:29.536Z,17.52
2023-02-18T19:30:57.899Z,14.55
2023-02-18T19:33:26.311Z,16.55
2023-02-18T19:35:54.685Z,14.65
2023-02-18T19:38:24.402Z,16.35
2023-02-18T19:40:53.901Z,18.02
2023-02-18T19:43:22.312Z,17.35
2023-02-18T19:45:51.039Z,17.65
2023-02-18T19:48:20.804Z,16.88
2023-02-18T19:50:49.167Z,17.90
2023-02-18T19:53:17.554Z,18.88
2023-02-18T19:55:47.274Z,16.33
2023-02-18T19:58:15.595Z,15.43
2023-02-18T20:00:44.543Z,18.67
2023-02-18T20:03:12.891Z,14.45
2023-02-18T20:05:41.316Z,16.80
2023-02-18T20:08:09.804Z,16.27
2023-02-18T20:10:38.398Z,15.75
2023-02-18T20:13:11.341Z,14.90
2023-02-18T20:15:40.756Z,13.82
2023-02-18T20:18:09.136Z,16.05
2023-02-18T20:20:37.485Z,18.30
2023-02-18T20:23:05.851Z,19.95
2023-02-18T20:25:34.133Z,15.18
2023-02-18T20:28:02.414Z,17.92
2023-02-18T20:30:32.114Z,14.40
2023-02-18T20:33:00.444Z,15.40
2023-02-18T20:35:28.859Z,15.10
2023-02-18T20:37:57.208Z,18.00
2023-02-18T20:40:25.596Z,17.45
2023-02-18T20:42:53.945Z,15.98
2023-02-18T20:45:22.371Z,16.33
2023-02-18T20:47:52.204Z,14.63
2023-02-18T20:50:21.715Z,18.38
2023-02-18T20:52:50.059Z,15.15
2023-02-18T20:55:18.632Z,17.83
2023-02-18T20:57:46.992Z,15.93
2023-02-18T21:00:16.501Z,16.55
2023-02-18T21:02:44.929Z,15.32
2023-02-18T21:05:14.634Z,15.15
2023-02-18T21:07:42.975Z,18.30
2023-02-18T21:10:11.308Z,16.17
2023-02-18T21:12:39.688Z,16.27
2023-02-18T21:15:08.676Z,16.23
2023-02-18T21:17:37.065Z,16.75
2023-02-18T21:20:06.700Z,16.85
2023-02-18T21:22:36.409Z,15.93
2023-02-18T21:25:05.130Z,14.88
2023-02-18T21:27:33.521Z,16.98
2023-02-18T21:30:04.159Z,13.88
2023-02-18T21:32:32.567Z,15.48
2023-02-18T21:35:00.939Z,15.93
2023-02-18T21:37:29.333Z,16.85
2023-02-18T21:40:02.193Z,17.30
2023-02-18T21:42:31.534Z,16.75
2023-02-18T21:44:59.877Z,16.35
2023-02-18T21:47:28.239Z,17.50
2023-02-18T21:49:56.605Z,15.30
2023-02-18T21:52:27.625Z,15.98
2023-02-18T21:54:56.128Z,16.67
2023-02-18T21:57:26.265Z,14.23
2023-02-18T21:59:54.601Z,15.32
2023-02-18T22:02:25.002Z,15.38
2023-02-18T22:04:53.862Z,13.00
2023-02-18T22:07:25.849Z,16.85
2023-02-18T22:09:54.994Z,15.98
2023-02-18T22:12:26.280Z,13.77
2023-02-18T22:14:54.655Z,12.95
2023-02-18T22:17:23.041Z,15.55
2023-02-18T22:19:51.348Z,14.10
2023-02-18T22:22:19.738Z,15.65
2023-02-18T22:24:48.048Z,14.13
2023-02-18T22:27:16.353Z,14.88
2023-02-18T22:29:47.180Z,12.73
2023-02-18T22:32:15.673Z,14.85
2023-02-18T22:34:44.103Z,13.40
2023-02-18T22:37:12.504Z,15.30
2023-02-18T22:39:41.135Z,13.52
2023-02-18T22:42:09.483Z,13.73
2023-02-18T22:44:39.307Z,15.63
2023-02-18T22:47:09.213Z,14.88
2023-02-18T22:49:37.605Z,15.43
2023-02-18T22:52:06.223Z,15.30
2023-02-18T22:54:34.621Z,14.00
2023-02-18T22:57:03.066Z,15.30
2023-02-18T22:59:31.458Z,14.07
2023-02-18T23:01:59.851Z,14.57
2023-02-18T23:04:29.668Z,15.38
2023-02-18T23:06:58.057Z,13.50
2023-02-18T23:09:26.615Z,15.00
2023-02-18T23:11:57.910Z,15.00
2023-02-18T23:14:28.147Z,15.52
2023-02-18T23:17:17.913Z,16.42
2023-02-18T23:19:48.996Z,16.05
2023-02-18T23:22:19.067Z,14.68
2023-02-18T23:24:49.414Z,15.05
2023-02-18T23:27:18.798Z,13.93
2023-02-18T23:29:47.311Z,13.80
2023-02-18T23:32:15.833Z,13.95
2023-02-18T23:34:44.228Z,14.20
2023-02-18T23:37:14.059Z,13.98
2023-02-18T23:39:44.962Z,14.48
2023-02-18T23:42:14.201Z,12.13
2023-02-18T23:44:42.561Z,12.93
2023-02-18T23:47:10.892Z,12.25
2023-02-18T23:49:39.197Z,14.30
2023-02-18T23:52:07.530Z,14.00
2023-02-18T23:54:37.296Z,13.27
2023-02-18T23:57:05.646Z,14.18
2023-02-18T23:59:34.049Z,13.45
